createdAt,value
2023-02-26T00:01:19.951Z,4.40
2023-02-26T00:03:54.753Z,5.10
2023-02-26T00:06:23.932Z,4.90
2023-02-26T00:08:54.323Z,4.77
2023-02-26T00:11:22.351Z,5.00
2023-02-26T00:13:51.115Z,4.97
2023-02-26T00:16:30.444Z,5.22
2023-02-26T00:18:59.022Z,5.32
2023-02-26T00:21:26.707Z,5.47
2023-02-26T00:23:53.914Z,5.00
2023-02-26T00:26:21.607Z,5.10
2023-02-26T00:28:50.143Z,4.72
2023-02-26T00:31:17.574Z,4.85
2023-02-26T00:33:47.129Z,5.13
2023-02-26T00:36:16.759Z,4.95
2023-02-26T00:38:46.623Z,5.18
2023-02-26T00:41:15.821Z,5.07
2023-02-26T00:57:37.223Z,4.57
2023-02-26T01:03:04.703Z,4.35
2023-02-26T01:08:58.723Z,4.85
2023-02-26T01:11:58.341Z,4.40
2023-02-26T01:17:49.703Z,4.43
2023-02-26T01:20:57.575Z,5.03
2023-02-26T01:23:29.281Z,4.28
2023-02-26T01:34:56.052Z,4.40
2023-02-26T01:37:23.297Z,5.03
2023-02-26T01:39:50.893Z,4.32
2023-02-26T01:42:23.245Z,4.63
2023-02-26T01:44:50.689Z,5.63
2023-02-26T01:47:36.368Z,5.60
2023-02-26T01:50:17.952Z,4.18
2023-02-26T01:52:50.984Z,4.68
2023-02-26T01:55:23.592Z,4.40
2023-02-26T01:57:52.977Z,4.22
2023-02-26T02:00:20.366Z,3.40
2023-02-26T02:02:47.726Z,3.47
2023-02-26T02:05:19.153Z,4.72
2023-02-26T02:07:46.320Z,5.25
2023-02-26T02:10:13.708Z,5.13
2023-02-26T02:12:45.698Z,5.70
2023-02-26T02:15:26.817Z,5.45
2023-02-26T02:18:00.114Z,5.40
2023-02-26T02:20:27.645Z,5.85
2023-02-26T02:23:01.342Z,5.45
2023-02-26T02:25:49.623Z,4.88
2023-02-26T02:28:37.221Z,4.72
2023-02-26T02:31:07.904Z,4.22
2023-02-26T02:33:39.455Z,4.15
2023-02-26T02:36:10.435Z,4.10
2023-02-26T02:38:41.283Z,4.00
2023-02-26T02:41:16.911Z,4.95
2023-02-26T02:43:44.992Z,5.03
2023-02-26T02:46:16.391Z,4.30
2023-02-26T02:48:46.389Z,4.70
2023-02-26T02:51:13.630Z,4.63
2023-02-26T02:53:44.217Z,5.78
2023-02-26T02:56:17.896Z,5.63
2023-02-26T02:58:48.168Z,5.45
2023-02-26T03:01:17.286Z,5.13
2023-02-26T03:03:51.178Z,5.80
2023-02-26T03:06:18.793Z,5.97
2023-02-26T03:08:48.676Z,5.25
2023-02-26T03:11:16.256Z,4.80
2023-02-26T03:13:43.504Z,4.57
2023-02-26T03:16:13.661Z,4.38
2023-02-26T03:18:45.946Z,4.55
2023-02-26T03:21:18.693Z,4.10
2023-02-26T03:23:54.770Z,4.85
2023-02-26T03:26:30.297Z,5.00
2023-02-26T03:29:11.236Z,5.95
2023-02-26T03:31:42.577Z,5.20
2023-02-26T03:34:14.812Z,5.80
2023-02-26T03:37:02.477Z,5.30
2023-02-26T03:39:32.531Z,4.60
2023-02-26T03:42:08.979Z,5.57
2023-02-26T03:44:42.239Z,4.80
2023-02-26T03:47:11.943Z,5.25
2023-02-26T03:49:42.583Z,4.67
2023-02-26T03:54:42.768Z,4.72
2023-02-26T03:57:12.629Z,5.57
2023-02-26T03:59:40.065Z,5.53
2023-02-26T04:02:22.820Z,5.03
2023-02-26T04:05:09.113Z,5.25
2023-02-26T04:07:36.368Z,4.03
2023-02-26T04:10:04.262Z,5.63
2023-02-26T04:12:31.661Z,6.15
2023-02-26T04:14:59.504Z,4.55
2023-02-26T04:17:29.078Z,4.47
2023-02-26T04:22:25.201Z,6.40
2023-02-26T04:24:52.451Z,4.85
2023-02-26T04:27:19.678Z,4.82
2023-02-26T04:29:46.946Z,4.53
2023-02-26T04:32:14.292Z,4.75
2023-02-26T04:34:41.829Z,5.55
2023-02-26T04:37:11.042Z,5.38
2023-02-26T04:39:38.285Z,5.55
2023-02-26T04:42:05.479Z,5.65
2023-02-26T04:44:33.090Z,5.38
2023-02-26T04:47:00.343Z,6.35
2023-02-26T04:49:27.448Z,5.82
2023-02-26T04:51:54.788Z,7.60
2023-02-26T04:54:22.121Z,6.00
2023-02-26T04:56:49.266Z,7.82
2023-02-26T04:59:18.041Z,6.78
2023-02-26T05:01:45.619Z,6.95
2023-02-26T05:04:13.276Z,7.93
2023-02-26T05:06:40.901Z,6.95
2023-02-26T05:09:08.348Z,7.13
2023-02-26T05:11:35.772Z,7.00
2023-02-26T05:14:02.978Z,7.10
2023-02-26T05:16:30.523Z,8.32
2023-02-26T05:18:57.997Z,6.93
2023-02-26T05:21:26.286Z,6.82
2023-02-26T05:23:53.623Z,6.68
2023-02-26T05:26:20.813Z,5.90
2023-02-26T05:28:49.282Z,6.05
2023-02-26T05:31:16.458Z,5.43
2023-02-26T05:33:43.807Z,6.05
2023-02-26T05:36:11.363Z,5.72
2023-02-26T05:38:38.565Z,6.18
2023-02-26T05:41:05.896Z,6.85
2023-02-26T05:43:34.182Z,5.47
2023-02-26T05:46:01.416Z,5.40
2023-02-26T05:48:28.684Z,6.20
2023-02-26T05:50:55.906Z,5.78
2023-02-26T05:53:23.048Z,6.43
2023-02-26T05:55:50.553Z,6.13
2023-02-26T05:58:17.893Z,6.38
2023-02-26T06:00:45.282Z,6.47
2023-02-26T06:03:12.546Z,6.38
2023-02-26T06:05:39.817Z,7.25
2023-02-26T06:08:07.400Z,5.45
2023-02-26T06:10:34.625Z,6.53
2023-02-26T06:13:01.862Z,6.35
2023-02-26T06:15:29.046Z,6.88
2023-02-26T06:17:56.178Z,6.78
2023-02-26T06:20:23.472Z,5.72
2023-02-26T06:22:50.708Z,6.35
2023-02-26T06:25:17.886Z,6.93
2023-02-26T06:27:45.067Z,6.82
2023-02-26T06:30:12.454Z,7.70
2023-02-26T06:32:39.745Z,6.18
2023-02-26T06:35:07.116Z,7.45
2023-02-26T06:37:34.311Z,7.15
2023-02-26T06:40:01.442Z,7.05
2023-02-26T06:42:28.615Z,6.93
2023-02-26T06:44:57.118Z,7.05
2023-02-26T06:47:24.885Z,7.22
2023-02-26T06:49:52.012Z,7.93
2023-02-26T06:52:19.189Z,8.18
2023-02-26T06:54:46.711Z,9.05
2023-02-26T06:57:14.470Z,8.77
2023-02-26T06:59:41.635Z,8.75
2023-02-26T07:02:10.548Z,7.80
2023-02-26T07:04:37.819Z,8.90
2023-02-26T07:07:06.342Z,9.25
2023-02-26T07:09:33.465Z,9.60
2023-02-26T07:12:00.588Z,8.00
2023-02-26T07:14:27.820Z,7.55
2023-02-26T07:16:55.017Z,7.25
2023-02-26T07:19:22.450Z,7.43
2023-02-26T07:21:49.567Z,7.30
2023-02-26T07:24:16.709Z,8.30
2023-02-26T07:26:44.861Z,8.55
2023-02-26T07:29:13.030Z,9.32
2023-02-26T07:31:42.583Z,8.38
2023-02-26T07:34:09.939Z,9.55
2023-02-26T07:36:37.242Z,8.68
2023-02-26T07:39:04.396Z,8.30
2023-02-26T07:41:31.555Z,8.95
2023-02-26T07:43:58.691Z,7.43
2023-02-26T07:46:26.111Z,7.53
2023-02-26T07:48:53.399Z,6.60
2023-02-26T07:51:20.554Z,8.38
2023-02-26T07:53:47.671Z,7.35
2023-02-26T07:56:14.777Z,8.02
2023-02-26T07:58:41.914Z,6.53
2023-02-26T08:01:09.111Z,6.70
2023-02-26T08:03:36.241Z,6.43
2023-02-26T08:06:03.507Z,6.63
2023-02-26T08:08:30.576Z,7.30
2023-02-26T08:10:59.816Z,7.05
2023-02-26T08:13:26.938Z,7.13
2023-02-26T08:15:54.313Z,8.05
2023-02-26T08:18:21.542Z,7.28
2023-02-26T08:20:48.647Z,7.70
2023-02-26T08:23:15.742Z,8.23
2023-02-26T08:25:42.840Z,9.35
2023-02-26T08:28:09.973Z,8.57
2023-02-26T08:30:37.163Z,7.55
2023-02-26T08:33:04.418Z,7.00
2023-02-26T08:35:32.033Z,4.88
2023-02-26T08:38:00.061Z,5.93
2023-02-26T08:40:27.204Z,4.40
2023-02-26T08:42:54.473Z,3.78
2023-02-26T08:45:21.629Z,4.15
2023-02-26T08:47:56.738Z,3.72
2023-02-26T08:50:25.047Z,4.00
2023-02-26T08:52:52.198Z,4.90
2023-02-26T08:55:19.282Z,3.90
2023-02-26T08:57:46.474Z,4.68
2023-02-26T09:00:16.245Z,4.75
2023-02-26T09:02:43.435Z,4.30
2023-02-26T09:05:11.989Z,4.25
2023-02-26T09:07:39.775Z,5.43
2023-02-26T09:10:07.342Z,5.00
2023-02-26T09:12:36.980Z,5.47
2023-02-26T09:15:07.590Z,5.43
2023-02-26T09:20:01.860Z,4.68
2023-02-26T09:22:28.978Z,4.78
2023-02-26T09:24:56.198Z,5.25
2023-02-26T09:27:23.510Z,4.85
2023-02-26T09:29:50.601Z,5.30
2023-02-26T09:32:17.794Z,5.60
2023-02-26T09:34:45.146Z,5.63
2023-02-26T09:37:12.436Z,5.97
2023-02-26T09:39:39.565Z,6.10
2023-02-26T09:42:29.979Z,6.03
2023-02-26T09:45:00.126Z,5.50
2023-02-26T09:47:27.352Z,5.18
2023-02-26T09:49:54.438Z,5.20
2023-02-26T09:52:32.858Z,5.45
2023-02-26T09:55:02.294Z,5.18
2023-02-26T09:57:33.909Z,5.63
2023-02-26T10:00:01.952Z,5.22
2023-02-26T10:02:35.107Z,5.15
2023-02-26T10:05:19.585Z,5.07
2023-02-26T10:07:50.103Z,4.93
2023-02-26T10:10:34.301Z,4.72
2023-02-26T10:13:01.493Z,5.35
2023-02-26T10:15:36.703Z,4.70
2023-02-26T10:18:11.145Z,4.95
2023-02-26T10:20:39.747Z,4.60
2023-02-26T10:23:09.795Z,5.05
2023-02-26T10:25:41.047Z,4.20
2023-02-26T10:28:26.528Z,4.28
2023-02-26T10:30:57.078Z,5.00
2023-02-26T10:33:27.457Z,6.03
2023-02-26T10:35:59.435Z,5.55
2023-02-26T10:38:28.436Z,3.72
2023-02-26T10:40:59.479Z,2.83
2023-02-26T10:43:32.387Z,3.08
2023-02-26T10:46:05.407Z,2.63
2023-02-26T10:48:50.931Z,2.85
2023-02-26T10:51:19.722Z,3.03
2023-02-26T10:53:58.427Z,2.83
2023-02-26T10:56:30.361Z,2.58
2023-02-26T10:58:57.483Z,3.05
2023-02-26T11:01:26.434Z,3.28
2023-02-26T11:04:02.620Z,3.20
2023-02-26T11:06:31.363Z,3.70
2023-02-26T11:08:59.124Z,2.58
2023-02-26T11:11:38.277Z,3.10
2023-02-26T11:14:05.449Z,3.15
2023-02-26T11:16:32.924Z,2.90
2023-02-26T11:19:01.210Z,4.53
2023-02-26T11:21:33.622Z,3.10
2023-02-26T11:24:05.948Z,3.15
2023-02-26T11:26:35.615Z,3.97
2023-02-26T11:29:02.869Z,4.47
2023-02-26T11:31:31.124Z,3.65
2023-02-26T11:34:05.936Z,6.82
2023-02-26T11:36:34.467Z,3.90
2023-02-26T11:39:08.022Z,2.80
2023-02-26T11:41:38.166Z,3.72
2023-02-26T11:44:10.835Z,3.17
2023-02-26T11:46:41.308Z,4.13
2023-02-26T11:49:10.864Z,6.32
2023-02-26T11:51:38.032Z,7.10
2023-02-26T11:54:20.262Z,3.38
2023-02-26T11:56:47.847Z,2.83
2023-02-26T11:59:18.367Z,3.50
2023-02-26T12:01:45.588Z,5.50
2023-02-26T12:04:14.097Z,4.57
2023-02-26T12:06:42.001Z,7.57
2023-02-26T12:09:13.216Z,5.50
2023-02-26T12:11:52.390Z,2.95
2023-02-26T12:14:38.082Z,2.40
2023-02-26T12:17:14.358Z,2.47
2023-02-26T12:19:46.826Z,2.50
2023-02-26T12:22:32.787Z,2.22
2023-02-26T12:25:18.675Z,2.55
2023-02-26T12:27:48.905Z,2.03
2023-02-26T12:30:37.281Z,2.13
2023-02-26T12:33:27.190Z,2.50
2023-02-26T12:36:02.203Z,2.80
2023-02-26T12:38:35.380Z,2.88
2023-02-26T12:41:16.286Z,2.10
2023-02-26T12:43:56.718Z,2.13
2023-02-26T12:46:26.655Z,2.25
2023-02-26T12:49:05.997Z,2.80
2023-02-26T12:51:35.817Z,2.40
2023-02-26T12:54:08.841Z,2.17
2023-02-26T12:56:41.913Z,2.20
2023-02-26T12:59:27.606Z,2.35
2023-02-26T13:02:00.920Z,2.10
2023-02-26T13:04:43.878Z,2.72
2023-02-26T13:07:18.802Z,1.90
2023-02-26T13:09:56.485Z,2.42
2023-02-26T13:12:26.671Z,2.50
2023-02-26T13:14:56.725Z,2.25
2023-02-26T13:17:50.000Z,2.08
2023-02-26T13:20:28.857Z,2.28
2023-02-26T13:22:58.437Z,2.47
2023-02-26T13:25:40.724Z,2.45
2023-02-26T13:28:31.095Z,2.17
2023-02-26T13:31:00.575Z,2.10
2023-02-26T13:33:30.945Z,1.90
2023-02-26T13:36:00.266Z,2.08
2023-02-26T13:38:35.213Z,1.88
2023-02-26T13:41:15.969Z,2.00
2023-02-26T13:46:13.146Z,2.22
2023-02-26T13:48:53.033Z,2.17
2023-02-26T13:51:40.418Z,2.50
2023-02-26T13:54:17.374Z,1.88
2023-02-26T13:56:50.843Z,2.58
2023-02-26T13:59:32.172Z,2.38
2023-02-26T14:02:03.856Z,2.08
2023-02-26T14:04:50.359Z,2.40
2023-02-26T14:07:17.835Z,3.00
2023-02-26T14:09:51.691Z,2.28
2023-02-26T14:12:26.345Z,2.78
2023-02-26T14:15:02.254Z,2.88
2023-02-26T14:17:35.165Z,2.67
2023-02-26T14:20:20.384Z,2.03
2023-02-26T14:22:48.670Z,3.42
2023-02-26T14:25:34.941Z,2.65
2023-02-26T14:28:21.024Z,2.15
2023-02-26T14:30:49.193Z,3.22
2023-02-26T14:33:18.249Z,2.33
2023-02-26T14:35:49.432Z,2.88
2023-02-26T14:38:22.437Z,2.78
2023-02-26T14:40:52.492Z,3.30
2023-02-26T14:43:21.500Z,3.25
2023-02-26T14:45:50.119Z,3.42
2023-02-26T14:48:18.870Z,3.58
2023-02-26T14:50:52.086Z,4.03
2023-02-26T14:53:28.459Z,4.38
2023-02-26T14:56:14.212Z,7.32
2023-02-26T14:59:02.250Z,4.13
2023-02-26T15:01:56.572Z,2.80
2023-02-26T15:04:42.964Z,3.10
2023-02-26T15:07:56.144Z,4.00
2023-02-26T15:10:33.192Z,3.28
2023-02-26T15:13:03.602Z,3.78
2023-02-26T15:15:37.341Z,4.53
2023-02-26T15:18:18.819Z,4.90
2023-02-26T15:20:54.592Z,4.97
2023-02-26T15:23:33.488Z,5.00
2023-02-26T15:26:01.246Z,6.03
2023-02-26T15:28:29.888Z,6.35
2023-02-26T15:31:00.398Z,4.70
2023-02-26T15:33:27.949Z,4.90
2023-02-26T15:35:58.795Z,6.72
2023-02-26T15:38:26.233Z,8.85
2023-02-26T15:40:54.994Z,4.78
2023-02-26T15:43:24.050Z,5.78
2023-02-26T15:45:53.090Z,4.10
2023-02-26T15:48:28.839Z,3.88
2023-02-26T15:50:58.402Z,3.83
2023-02-26T15:53:34.914Z,3.95
2023-02-26T15:56:06.575Z,5.68
2023-02-26T15:58:38.881Z,4.68
2023-02-26T16:01:06.864Z,5.22
2023-02-26T16:03:35.806Z,4.97
2023-02-26T16:06:03.332Z,4.70
2023-02-26T16:08:30.581Z,3.50
2023-02-26T16:10:59.640Z,4.07
2023-02-26T16:13:31.412Z,2.80
2023-02-26T16:16:09.802Z,4.22
2023-02-26T16:18:37.607Z,3.95
2023-02-26T16:21:06.667Z,5.05
2023-02-26T16:23:41.686Z,5.38
2023-02-26T16:26:10.125Z,4.78
2023-02-26T16:28:45.773Z,4.20
2023-02-26T16:31:20.409Z,3.95
2023-02-26T16:33:53.558Z,4.35
2023-02-26T16:36:24.830Z,4.18
2023-02-26T16:38:58.710Z,4.05
2023-02-26T16:41:27.164Z,4.30
2023-02-26T16:43:57.594Z,4.43
2023-02-26T16:46:44.506Z,4.70
2023-02-26T16:49:24.337Z,5.13
2023-02-26T16:51:52.252Z,4.77
2023-02-26T16:54:25.611Z,4.80
2023-02-26T16:57:12.996Z,6.63
2023-02-26T16:59:44.403Z,7.50
2023-02-26T17:02:12.944Z,5.53
2023-02-26T17:04:40.641Z,5.05
2023-02-26T17:07:21.211Z,6.18
2023-02-26T17:12:22.975Z,6.32
2023-02-26T17:14:56.364Z,6.25
2023-02-26T17:17:24.157Z,7.65
2023-02-26T17:19:51.722Z,5.70
2023-02-26T17:22:20.209Z,6.95
2023-02-26T17:24:52.629Z,5.95
2023-02-26T17:27:45.858Z,5.60
2023-02-26T17:30:16.030Z,6.28
2023-02-26T17:32:44.141Z,5.00
2023-02-26T17:35:15.701Z,6.13
2023-02-26T17:37:44.959Z,6.28
2023-02-26T17:40:32.623Z,5.57
2023-02-26T17:43:00.157Z,8.50
2023-02-26T17:45:27.324Z,19.80
2023-02-26T17:47:54.574Z,15.90
2023-02-26T17:50:25.979Z,9.02
2023-02-26T17:52:53.387Z,10.30
2023-02-26T17:55:20.546Z,12.65
2023-02-26T17:57:47.752Z,10.50
2023-02-26T18:00:15.816Z,9.93
2023-02-26T18:02:43.182Z,6.47
2023-02-26T18:05:10.547Z,9.43
2023-02-26T18:07:37.982Z,8.80
2023-02-26T18:10:05.801Z,8.18
2023-02-26T18:12:32.958Z,8.75
2023-02-26T18:15:00.174Z,8.02
2023-02-26T18:17:28.538Z,7.63
2023-02-26T18:19:55.761Z,7.95
2023-02-26T18:22:27.604Z,6.85
2023-02-26T18:24:55.648Z,7.15
2023-02-26T18:27:24.014Z,9.45
2023-02-26T18:29:52.091Z,9.80
2023-02-26T18:32:21.090Z,12.63
2023-02-26T18:34:52.121Z,10.35
2023-02-26T18:37:20.821Z,10.73
2023-02-26T18:39:47.994Z,9.35
2023-02-26T18:42:26.122Z,10.05
2023-02-26T18:44:54.214Z,11.73
2023-02-26T18:47:22.440Z,8.65
2023-02-26T18:49:51.477Z,10.52
2023-02-26T18:52:18.887Z,14.38
2023-02-26T18:54:47.107Z,13.23
2023-02-26T18:57:15.146Z,11.07
2023-02-26T18:59:42.316Z,11.45
2023-02-26T19:02:11.917Z,15.50
2023-02-26T19:04:39.690Z,12.02
2023-02-26T19:07:07.529Z,11.80
2023-02-26T19:09:35.152Z,11.60
2023-02-26T19:12:02.997Z,10.50
2023-02-26T19:14:30.154Z,12.82
2023-02-26T19:16:57.371Z,12.48
2023-02-26T19:19:24.473Z,10.73
2023-02-26T19:21:51.729Z,11.52
2023-02-26T19:24:18.856Z,12.48
2023-02-26T19:26:46.575Z,15.63
2023-02-26T19:29:16.408Z,19.25
2023-02-26T19:31:45.423Z,20.67
2023-02-26T19:34:13.352Z,17.15
2023-02-26T19:36:43.371Z,15.32
2023-02-26T19:39:11.938Z,17.30
2023-02-26T19:41:39.378Z,17.75
2023-02-26T19:44:06.528Z,18.02
2023-02-26T19:46:33.871Z,17.65
2023-02-26T19:49:01.062Z,18.63
2023-02-26T19:51:28.597Z,20.83
2023-02-26T19:53:55.895Z,16.83
2023-02-26T19:56:22.997Z,17.23
2023-02-26T19:58:52.438Z,17.98
2023-02-26T20:01:19.633Z,18.60
2023-02-26T20:03:48.732Z,17.00
2023-02-26T20:06:16.407Z,16.55
2023-02-26T20:08:43.557Z,15.35
2023-02-26T20:11:11.079Z,19.13
2023-02-26T20:13:38.302Z,17.52
2023-02-26T20:16:07.036Z,20.75
2023-02-26T20:18:35.437Z,23.10
2023-02-26T20:21:05.138Z,27.65
2023-02-26T20:23:34.749Z,26.60
2023-02-26T20:26:02.410Z,28.05
2023-02-26T20:28:29.653Z,29.92
2023-02-26T20:30:56.872Z,37.28
2023-02-26T20:33:25.289Z,41.97
2023-02-26T20:35:54.306Z,43.42
2023-02-26T20:38:23.610Z,40.00
2023-02-26T20:40:51.089Z,37.70
2023-02-26T20:43:18.246Z,35.45
2023-02-26T20:45:45.849Z,32.22
2023-02-26T20:48:13.042Z,31.92
2023-02-26T20:50:40.513Z,30.23
2023-02-26T20:53:08.313Z,31.55
2023-02-26T20:55:35.896Z,34.05
2023-02-26T20:58:05.017Z,33.50
2023-02-26T21:00:32.537Z,35.42
2023-02-26T21:02:59.695Z,36.10
2023-02-26T21:05:27.577Z,40.67
2023-02-26T21:07:58.329Z,40.50
2023-02-26T21:10:26.826Z,30.65
2023-02-26T21:12:53.986Z,29.52
2023-02-26T21:15:21.306Z,29.02
2023-02-26T21:17:48.694Z,30.02
2023-02-26T21:20:18.214Z,34.10
2023-02-26T21:22:48.581Z,29.80
2023-02-26T21:25:16.584Z,24.73
2023-02-26T21:27:46.235Z,25.45
2023-02-26T21:30:17.033Z,23.50
2023-02-26T21:32:44.546Z,22.55
2023-02-26T21:35:16.338Z,22.50
2023-02-26T21:37:44.591Z,20.65
2023-02-26T21:40:12.306Z,21.85
2023-02-26T21:42:39.524Z,20.48
2023-02-26T21:45:07.354Z,22.10
2023-02-26T21:47:34.767Z,21.40
2023-02-26T21:50:01.959Z,22.30
2023-02-26T21:52:29.653Z,22.15
2023-02-26T21:54:57.078Z,21.05
2023-02-26T21:57:27.612Z,22.80
2023-02-26T21:59:54.881Z,21.20
2023-02-26T22:02:24.529Z,21.05
2023-02-26T22:04:52.509Z,19.52
2023-02-26T22:07:19.993Z,20.33
2023-02-26T22:09:49.083Z,26.70
2023-02-26T22:12:19.429Z,20.75
2023-02-26T22:14:49.403Z,17.15
2023-02-26T22:17:16.630Z,15.48
2023-02-26T22:19:46.517Z,19.30
2023-02-26T22:22:21.794Z,11.40
2023-02-26T22:24:51.657Z,9.20
2023-02-26T22:27:19.149Z,9.73
2023-02-26T22:29:53.674Z,9.15
2023-02-26T22:32:21.132Z,8.68
2023-02-26T22:34:55.568Z,10.00
2023-02-26T22:37:28.431Z,8.80
2023-02-26T22:40:09.205Z,8.27
2023-02-26T22:45:27.489Z,6.93
2023-02-26T22:47:57.227Z,7.43
2023-02-26T22:50:29.051Z,7.93
2023-02-26T22:52:59.959Z,7.72
2023-02-26T22:55:33.380Z,8.38
2023-02-26T22:58:04.495Z,7.82
2023-02-26T23:00:31.882Z,7.60
2023-02-26T23:02:59.242Z,8.68
2023-02-26T23:05:26.452Z,8.13
2023-02-26T23:07:58.244Z,7.63
2023-02-26T23:13:18.611Z,8.35
2023-02-26T23:16:03.109Z,8.10
2023-02-26T23:18:43.942Z,7.50
2023-02-26T23:21:13.924Z,7.40
2023-02-26T23:23:49.710Z,6.90
2023-02-26T23:26:17.352Z,7.40
2023-02-26T23:28:44.998Z,7.63
2023-02-26T23:31:17.048Z,7.13
2023-02-26T23:34:00.370Z,7.95
2023-02-26T23:36:40.951Z,7.18
2023-02-26T23:39:18.327Z,6.72
2023-02-26T23:41:48.421Z,6.45
2023-02-26T23:44:31.214Z,5.80
2023-02-26T23:47:00.810Z,5.40
2023-02-26T23:49:28.428Z,7.00
2023-02-26T23:51:57.001Z,6.88
2023-02-26T23:54:24.535Z,5.60
2023-02-26T23:56:51.941Z,6.30
2023-02-26T23:59:19.313Z,5.93
